sensor_id;sensor_type;location;lat;lon;timestamp;temperature;humidity
9448;DHT22;4762;48.128;11.376;2023-02-15T00:00:08;-0.40;99.90
9448;DHT22;4762;48.128;11.376;2023-02-15T00:02:10;-0.40;99.90
9448;DHT22;4762;48.128;11.376;2023-02-15T00:04:13;-0.40;99.90
9448;DHT22;4762;48.128;11.376;2023-02-15T00:06:15;-0.30;99.90
9448;DHT22;4762;48.128;11.376;2023-02-15T00:08:17;-0.40;99.90
9448;DHT22;4762;48.128;11.376;2023-02-15T00:10:20;-0.40;99.90
9448;DHT22;4762;48.128;11.376;2023-02-15T00:12:22;-0.30;99.90
9448;DHT22;4762;48.128;11.376;2023-02-15T00:14:24;-0.30;99.90
9448;DHT22;4762;48.128;11.376;2023-02-15T00:16:26;-0.30;99.90
9448;DHT22;4762;48.128;11.376;2023-02-15T00:18:29;-0.20;99.90
9448;DHT22;4762;48.128;11.376;2023-02-15T00:20:31;-0.40;99.90
9448;DHT22;4762;48.128;11.376;2023-02-15T00:22:33;-0.40;99.90
9448;DHT22;4762;48.128;11.376;2023-02-15T00:24:37;-0.40;99.90
9448;DHT22;4762;48.128;11.376;2023-02-15T00:26:41;-0.50;99.90
9448;DHT22;4762;48.128;11.376;2023-02-15T00:28:42;-0.50;99.90
9448;DHT22;4762;48.128;11.376;2023-02-15T00:30:45;-0.40;99.90
9448;DHT22;4762;48.128;11.376;2023-02-15T00:32:47;-0.50;99.90
9448;DHT22;4762;48.128;11.376;2023-02-15T00:34:49;-0.40;99.90
9448;DHT22;4762;48.128;11.376;2023-02-15T00:36:52;-0.40;99.90
9448;DHT22;4762;48.128;11.376;2023-02-15T00:38:54;-0.40;99.90
9448;DHT22;4762;48.128;11.376;2023-02-15T00:40:57;-0.50;99.90
9448;DHT22;4762;48.128;11.376;2023-02-15T00:42:58;-0.50;99.90
9448;DHT22;4762;48.128;11.376;2023-02-15T00:45:00;-0.50;99.90
9448;DHT22;4762;48.128;11.376;2023-02-15T00:47:03;-0.40;99.90
9448;DHT22;4762;48.128;11.376;2023-02-15T00:49:05;-0.50;99.90
9448;DHT22;4762;48.128;11.376;2023-02-15T00:51:07;-0.60;99.90
9448;DHT22;4762;48.128;11.376;2023-02-15T00:53:09;-0.70;99.90
9448;DHT22;4762;48.128;11.376;2023-02-15T00:55:11;-0.50;99.90
9448;DHT22;4762;48.128;11.376;2023-02-15T00:57:14;-0.50;99.90
9448;DHT22;4762;48.128;11.376;2023-02-15T00:59:16;-0.50;99.90
9448;DHT22;4762;48.128;11.376;2023-02-15T01:01:19;-0.70;99.90
9448;DHT22;4762;48.128;11.376;2023-02-15T01:03:21;-0.80;99.90
9448;DHT22;4762;48.128;11.376;2023-02-15T01:05:23;-0.70;99.90
9448;DHT22;4762;48.128;11.376;2023-02-15T01:07:26;-0.60;99.90
9448;DHT22;4762;48.128;11.376;2023-02-15T01:09:29;-0.50;99.90
9448;DHT22;4762;48.128;11.376;2023-02-15T01:11:31;-0.40;99.90
9448;DHT22;4762;48.128;11.376;2023-02-15T01:13:34;-0.40;99.90
9448;DHT22;4762;48.128;11.376;2023-02-15T01:15:36;-0.50;99.90
9448;DHT22;4762;48.128;11.376;2023-02-15T01:17:38;-0.50;99.90
9448;DHT22;4762;48.128;11.376;2023-02-15T01:19:41;-0.50;99.90
9448;DHT22;4762;48.128;11.376;2023-02-15T01:21:43;-0.70;99.90
9448;DHT22;4762;48.128;11.376;2023-02-15T01:23:45;-0.70;99.90
9448;DHT22;4762;48.128;11.376;2023-02-15T01:25:48;-0.80;99.90
9448;DHT22;4762;48.128;11.376;2023-02-15T01:27:50;-0.80;99.90
9448;DHT22;4762;48.128;11.376;2023-02-15T01:29:52;-0.80;99.90
9448;DHT22;4762;48.128;11.376;2023-02-15T01:31:55;-0.80;99.90
9448;DHT22;4762;48.128;11.376;2023-02-15T01:33:57;-0.80;99.90
9448;DHT22;4762;48.128;11.376;2023-02-15T01:35:59;-0.80;99.90
9448;DHT22;4762;48.128;11.376;2023-02-15T01:38:01;-0.70;99.90
9448;DHT22;4762;48.128;11.376;2023-02-15T01:40:05;-0.70;99.90
9448;DHT22;4762;48.128;11.376;2023-02-15T01:42:10;-0.60;99.90
9448;DHT22;4762;48.128;11.376;2023-02-15T01:46:42;-0.60;99.90
9448;DHT22;4762;48.128;11.376;2023-02-15T01:48:45;-0.80;99.90
9448;DHT22;4762;48.128;11.376;2023-02-15T01:50:47;-0.70;99.90
9448;DHT22;4762;48.128;11.376;2023-02-15T01:52:55;-0.70;99.90
9448;DHT22;4762;48.128;11.376;2023-02-15T01:54:55;-0.60;99.90
9448;DHT22;4762;48.128;11.376;2023-02-15T01:56:59;-0.60;99.90
9448;DHT22;4762;48.128;11.376;2023-02-15T01:59:02;-0.50;99.90
9448;DHT22;4762;48.128;11.376;2023-02-15T02:01:02;-0.70;99.90
9448;DHT22;4762;48.128;11.376;2023-02-15T02:03:05;-0.80;99.90
9448;DHT22;4762;48.128;11.376;2023-02-15T02:05:07;-0.80;99.90
9448;DHT22;4762;48.128;11.376;2023-02-15T02:07:10;-0.80;99.90
9448;DHT22;4762;48.128;11.376;2023-02-15T02:09:12;-0.90;99.90
9448;DHT22;4762;48.128;11.376;2023-02-15T02:11:14;-1.00;99.90
9448;DHT22;4762;48.128;11.376;2023-02-15T02:13:16;-0.90;99.90
9448;DHT22;4762;48.128;11.376;2023-02-15T02:15:20;-0.90;99.90
9448;DHT22;4762;48.128;11.376;2023-02-15T02:20:09;-0.80;99.90
9448;DHT22;4762;48.128;11.376;2023-02-15T02:22:35;-0.70;99.90
9448;DHT22;4762;48.128;11.376;2023-02-15T02:27:18;-0.80;99.90
9448;DHT22;4762;48.128;11.376;2023-02-15T02:31:56;-0.70;99.90
9448;DHT22;4762;48.128;11.376;2023-02-15T02:33:53;-0.70;99.90
9448;DHT22;4762;48.128;11.376;2023-02-15T02:36:00;-0.70;99.90
9448;DHT22;4762;48.128;11.376;2023-02-15T02:38:05;-1.00;99.90
9448;DHT22;4762;48.128;11.376;2023-02-15T02:40:16;-0.90;99.90
9448;DHT22;4762;48.128;11.376;2023-02-15T02:42:30;-0.80;99.90
9448;DHT22;4762;48.128;11.376;2023-02-15T02:44:38;-0.70;99.90
9448;DHT22;4762;48.128;11.376;2023-02-15T02:46:41;-0.70;99.90
9448;DHT22;4762;48.128;11.376;2023-02-15T02:48:39;-0.70;99.90
9448;DHT22;4762;48.128;11.376;2023-02-15T02:50:42;-1.00;99.90
9448;DHT22;4762;48.128;11.376;2023-02-15T02:52:47;-1.10;99.90
9448;DHT22;4762;48.128;11.376;2023-02-15T02:54:48;-1.10;99.90
9448;DHT22;4762;48.128;11.376;2023-02-15T02:56:50;-1.10;99.90
9448;DHT22;4762;48.128;11.376;2023-02-15T02:58:59;-1.00;99.90
9448;DHT22;4762;48.128;11.376;2023-02-15T03:01:05;-1.10;99.90
9448;DHT22;4762;48.128;11.376;2023-02-15T03:03:09;-1.00;99.90
9448;DHT22;4762;48.128;11.376;2023-02-15T03:05:11;-0.90;99.90
9448;DHT22;4762;48.128;11.376;2023-02-15T03:07:12;-0.90;99.90
9448;DHT22;4762;48.128;11.376;2023-02-15T03:09:17;-1.10;99.90
9448;DHT22;4762;48.128;11.376;2023-02-15T03:11:17;-0.90;99.90
9448;DHT22;4762;48.128;11.376;2023-02-15T03:13:20;-0.90;99.90
9448;DHT22;4762;48.128;11.376;2023-02-15T03:15:23;-1.00;99.90
9448;DHT22;4762;48.128;11.376;2023-02-15T03:17:25;-1.00;99.90
9448;DHT22;4762;48.128;11.376;2023-02-15T03:19:28;-1.00;99.90
9448;DHT22;4762;48.128;11.376;2023-02-15T03:21:34;-0.90;99.90
9448;DHT22;4762;48.128;11.376;2023-02-15T03:23:34;-0.90;99.90
9448;DHT22;4762;48.128;11.376;2023-02-15T03:25:38;-1.00;99.90
9448;DHT22;4762;48.128;11.376;2023-02-15T03:27:42;-0.90;99.90
9448;DHT22;4762;48.128;11.376;2023-02-15T03:29:43;-0.90;99.90
9448;DHT22;4762;48.128;11.376;2023-02-15T03:31:45;-0.80;99.90
9448;DHT22;4762;48.128;11.376;2023-02-15T03:33:50;-1.00;99.90
9448;DHT22;4762;48.128;11.376;2023-02-15T03:35:57;-0.90;99.90
9448;DHT22;4762;48.128;11.376;2023-02-15T03:37:58;-1.00;99.90
9448;DHT22;4762;48.128;11.376;2023-02-15T03:40:05;-1.00;99.90
9448;DHT22;4762;48.128;11.376;2023-02-15T03:42:17;-1.10;99.90
9448;DHT22;4762;48.128;11.376;2023-02-15T03:44:22;-1.10;99.90
9448;DHT22;4762;48.128;11.376;2023-02-15T03:46:24;-1.00;99.90
9448;DHT22;4762;48.128;11.376;2023-02-15T03:48:26;-1.00;99.90
9448;DHT22;4762;48.128;11.376;2023-02-15T03:50:28;-0.90;99.90
9448;DHT22;4762;48.128;11.376;2023-02-15T03:52:35;-0.90;99.90
9448;DHT22;4762;48.128;11.376;2023-02-15T03:54:37;-0.90;99.90
9448;DHT22;4762;48.128;11.376;2023-02-15T03:56:44;-1.00;99.90
9448;DHT22;4762;48.128;11.376;2023-02-15T03:58:47;-0.90;99.90
9448;DHT22;4762;48.128;11.376;2023-02-15T04:00:59;-0.90;99.90
9448;DHT22;4762;48.128;11.376;2023-02-15T04:05:31;-0.90;99.90
9448;DHT22;4762;48.128;11.376;2023-02-15T04:07:33;-0.90;99.90
9448;DHT22;4762;48.128;11.376;2023-02-15T04:09:36;-1.00;99.90
9448;DHT22;4762;48.128;11.376;2023-02-15T04:11:43;-0.90;99.90
9448;DHT22;4762;48.128;11.376;2023-02-15T04:13:46;-1.00;99.90
9448;DHT22;4762;48.128;11.376;2023-02-15T04:15:48;-1.00;99.90
9448;DHT22;4762;48.128;11.376;2023-02-15T04:17:56;-1.00;99.90
9448;DHT22;4762;48.128;11.376;2023-02-15T04:19:58;-1.00;99.90
9448;DHT22;4762;48.128;11.376;2023-02-15T04:22:06;-0.90;99.90
9448;DHT22;4762;48.128;11.376;2023-02-15T04:24:14;-1.00;99.90
9448;DHT22;4762;48.128;11.376;2023-02-15T04:26:21;-1.00;99.90
9448;DHT22;4762;48.128;11.376;2023-02-15T04:28:24;-1.10;99.90
9448;DHT22;4762;48.128;11.376;2023-02-15T04:30:26;-1.10;99.90
9448;DHT22;4762;48.128;11.376;2023-02-15T04:32:28;-1.10;99.90
9448;DHT22;4762;48.128;11.376;2023-02-15T04:34:30;-1.10;99.90
9448;DHT22;4762;48.128;11.376;2023-02-15T04:36:33;-1.00;99.90
9448;DHT22;4762;48.128;11.376;2023-02-15T04:38:35;-1.10;99.90
9448;DHT22;4762;48.128;11.376;2023-02-15T04:40:37;-0.90;99.90
9448;DHT22;4762;48.128;11.376;2023-02-15T04:42:40;-0.90;99.90
9448;DHT22;4762;48.128;11.376;2023-02-15T04:44:42;-0.80;99.90
9448;DHT22;4762;48.128;11.376;2023-02-15T04:46:44;-0.90;99.90
9448;DHT22;4762;48.128;11.376;2023-02-15T04:48:46;-1.00;99.90
9448;DHT22;4762;48.128;11.376;2023-02-15T04:50:49;-1.10;99.90
9448;DHT22;4762;48.128;11.376;2023-02-15T04:52:51;-1.00;99.90
9448;DHT22;4762;48.128;11.376;2023-02-15T04:54:53;-1.00;99.90
9448;DHT22;4762;48.128;11.376;2023-02-15T04:56:55;-1.20;99.90
9448;DHT22;4762;48.128;11.376;2023-02-15T04:58:58;-1.20;99.90
9448;DHT22;4762;48.128;11.376;2023-02-15T05:01:00;-1.10;99.90
9448;DHT22;4762;48.128;11.376;2023-02-15T05:03:02;-1.20;99.90
9448;DHT22;4762;48.128;11.376;2023-02-15T05:05:05;-1.40;99.90
9448;DHT22;4762;48.128;11.376;2023-02-15T05:07:07;-1.40;99.90
9448;DHT22;4762;48.128;11.376;2023-02-15T05:09:11;-1.30;99.90
9448;DHT22;4762;48.128;11.376;2023-02-15T05:11:12;-1.20;99.90
9448;DHT22;4762;48.128;11.376;2023-02-15T05:13:15;-1.20;99.90
9448;DHT22;4762;48.128;11.376;2023-02-15T05:15:17;-1.30;99.90
9448;DHT22;4762;48.128;11.376;2023-02-15T05:17:19;-1.50;99.90
9448;DHT22;4762;48.128;11.376;2023-02-15T05:19:21;-1.40;99.90
9448;DHT22;4762;48.128;11.376;2023-02-15T05:21:24;-1.30;99.90
9448;DHT22;4762;48.128;11.376;2023-02-15T05:23:26;-1.30;99.90
9448;DHT22;4762;48.128;11.376;2023-02-15T05:25:28;-1.40;99.90
9448;DHT22;4762;48.128;11.376;2023-02-15T05:27:36;-1.40;99.90
9448;DHT22;4762;48.128;11.376;2023-02-15T05:29:44;-1.50;99.90
9448;DHT22;4762;48.128;11.376;2023-02-15T05:31:46;-1.40;99.90
9448;DHT22;4762;48.128;11.376;2023-02-15T05:33:48;-1.50;99.90
9448;DHT22;4762;48.128;11.376;2023-02-15T05:35:50;-1.50;99.90
9448;DHT22;4762;48.128;11.376;2023-02-15T05:37:53;-1.60;99.90
9448;DHT22;4762;48.128;11.376;2023-02-15T05:39:55;-1.60;99.90
9448;DHT22;4762;48.128;11.376;2023-02-15T05:41:59;-1.60;99.90
9448;DHT22;4762;48.128;11.376;2023-02-15T05:44:01;-1.70;99.90
9448;DHT22;4762;48.128;11.376;2023-02-15T05:46:04;-1.70;99.90
9448;DHT22;4762;48.128;11.376;2023-02-15T05:48:06;-1.70;99.90
9448;DHT22;4762;48.128;11.376;2023-02-15T05:50:09;-1.70;99.90
9448;DHT22;4762;48.128;11.376;2023-02-15T05:52:11;-1.80;99.90
9448;DHT22;4762;48.128;11.376;2023-02-15T05:54:13;-1.60;99.90
9448;DHT22;4762;48.128;11.376;2023-02-15T05:56:15;-1.90;99.90
9448;DHT22;4762;48.128;11.376;2023-02-15T05:58:17;-1.80;99.90
9448;DHT22;4762;48.128;11.376;2023-02-15T06:00:20;-1.80;99.90
9448;DHT22;4762;48.128;11.376;2023-02-15T06:02:22;-1.80;99.90
9448;DHT22;4762;48.128;11.376;2023-02-15T06:04:24;-1.80;99.90
9448;DHT22;4762;48.128;11.376;2023-02-15T06:06:27;-1.80;99.90
9448;DHT22;4762;48.128;11.376;2023-02-15T06:08:29;-1.70;99.90
9448;DHT22;4762;48.128;11.376;2023-02-15T06:10:31;-1.80;99.90
9448;DHT22;4762;48.128;11.376;2023-02-15T06:12:33;-1.80;99.90
9448;DHT22;4762;48.128;11.376;2023-02-15T06:14:37;-1.80;99.90
9448;DHT22;4762;48.128;11.376;2023-02-15T06:16:39;-1.90;99.90
9448;DHT22;4762;48.128;11.376;2023-02-15T06:18:45;-1.90;99.90
9448;DHT22;4762;48.128;11.376;2023-02-15T06:20:55;-1.90;99.90
9448;DHT22;4762;48.128;11.376;2023-02-15T06:22:58;-2.00;99.90
9448;DHT22;4762;48.128;11.376;2023-02-15T06:25:02;-2.00;99.90
9448;DHT22;4762;48.128;11.376;2023-02-15T06:27:04;-1.90;99.90
9448;DHT22;4762;48.128;11.376;2023-02-15T06:29:06;-2.10;99.90
9448;DHT22;4762;48.128;11.376;2023-02-15T06:31:09;-2.20;99.90
9448;DHT22;4762;48.128;11.376;2023-02-15T06:35:28;-2.30;99.90
9448;DHT22;4762;48.128;11.376;2023-02-15T06:37:30;-2.30;99.90
9448;DHT22;4762;48.128;11.376;2023-02-15T06:39:33;-2.30;99.90
9448;DHT22;4762;48.128;11.376;2023-02-15T06:41:35;-2.30;99.90
9448;DHT22;4762;48.128;11.376;2023-02-15T06:43:37;-2.20;99.90
9448;DHT22;4762;48.128;11.376;2023-02-15T06:45:40;-2.30;99.90
9448;DHT22;4762;48.128;11.376;2023-02-15T06:47:42;-2.30;99.90
9448;DHT22;4762;48.128;11.376;2023-02-15T06:49:44;-2.20;99.90
9448;DHT22;4762;48.128;11.376;2023-02-15T06:51:46;-2.20;99.90
9448;DHT22;4762;48.128;11.376;2023-02-15T06:53:49;-2.10;99.90
9448;DHT22;4762;48.128;11.376;2023-02-15T06:55:51;-2.20;99.90
9448;DHT22;4762;48.128;11.376;2023-02-15T06:57:53;-2.30;99.90
9448;DHT22;4762;48.128;11.376;2023-02-15T06:59:56;-2.30;99.90
9448;DHT22;4762;48.128;11.376;2023-02-15T07:01:58;-2.20;99.90
9448;DHT22;4762;48.128;11.376;2023-02-15T07:04:00;-2.30;99.90
9448;DHT22;4762;48.128;11.376;2023-02-15T07:06:03;-2.50;99.90
9448;DHT22;4762;48.128;11.376;2023-02-15T07:08:05;-2.30;99.90
9448;DHT22;4762;48.128;11.376;2023-02-15T07:10:07;-2.40;99.90
9448;DHT22;4762;48.128;11.376;2023-02-15T07:12:10;-2.20;99.90
9448;DHT22;4762;48.128;11.376;2023-02-15T07:14:17;-2.10;99.90
9448;DHT22;4762;48.128;11.376;2023-02-15T07:16:20;-2.00;99.90
9448;DHT22;4762;48.128;11.376;2023-02-15T07:18:22;-2.20;99.90
9448;DHT22;4762;48.128;11.376;2023-02-15T07:20:24;-2.00;99.90
9448;DHT22;4762;48.128;11.376;2023-02-15T07:22:26;-1.90;99.90
9448;DHT22;4762;48.128;11.376;2023-02-15T07:24:29;-2.00;99.90
9448;DHT22;4762;48.128;11.376;2023-02-15T07:26:31;-1.80;99.90
9448;DHT22;4762;48.128;11.376;2023-02-15T07:28:41;-1.80;99.90
9448;DHT22;4762;48.128;11.376;2023-02-15T07:30:44;-1.70;99.90
9448;DHT22;4762;48.128;11.376;2023-02-15T07:32:46;-1.70;99.90
9448;DHT22;4762;48.128;11.376;2023-02-15T07:34:54;-1.60;99.90
9448;DHT22;4762;48.128;11.376;2023-02-15T07:36:56;-1.50;99.90
9448;DHT22;4762;48.128;11.376;2023-02-15T07:38:59;-1.50;99.90
9448;DHT22;4762;48.128;11.376;2023-02-15T07:41:02;-1.40;99.90
9448;DHT22;4762;48.128;11.376;2023-02-15T07:43:03;-1.70;99.90
9448;DHT22;4762;48.128;11.376;2023-02-15T07:45:06;-1.90;99.90
9448;DHT22;4762;48.128;11.376;2023-02-15T07:49:37;-1.50;99.90
9448;DHT22;4762;48.128;11.376;2023-02-15T07:51:39;-1.30;99.90
9448;DHT22;4762;48.128;11.376;2023-02-15T07:53:42;-1.50;99.90
9448;DHT22;4762;48.128;11.376;2023-02-15T07:55:44;-1.80;99.90
9448;DHT22;4762;48.128;11.376;2023-02-15T07:57:46;-1.50;99.90
9448;DHT22;4762;48.128;11.376;2023-02-15T07:59:48;-1.40;99.90
9448;DHT22;4762;48.128;11.376;2023-02-15T08:01:51;-1.50;99.90
9448;DHT22;4762;48.128;11.376;2023-02-15T08:03:53;-1.50;99.90
9448;DHT22;4762;48.128;11.376;2023-02-15T08:05:56;-1.40;99.90
9448;DHT22;4762;48.128;11.376;2023-02-15T08:07:57;-1.10;99.90
9448;DHT22;4762;48.128;11.376;2023-02-15T08:10:00;-1.10;99.90
9448;DHT22;4762;48.128;11.376;2023-02-15T08:12:02;-1.20;99.90
9448;DHT22;4762;48.128;11.376;2023-02-15T08:14:10;-1.10;99.90
9448;DHT22;4762;48.128;11.376;2023-02-15T08:16:12;-1.00;99.90
9448;DHT22;4762;48.128;11.376;2023-02-15T08:18:14;-0.90;99.90
9448;DHT22;4762;48.128;11.376;2023-02-15T08:20:16;-0.80;99.90
9448;DHT22;4762;48.128;11.376;2023-02-15T08:22:18;-0.80;99.90
9448;DHT22;4762;48.128;11.376;2023-02-15T08:24:21;-0.80;99.90
9448;DHT22;4762;48.128;11.376;2023-02-15T08:26:23;-0.80;99.90
9448;DHT22;4762;48.128;11.376;2023-02-15T08:28:25;-0.80;99.90
9448;DHT22;4762;48.128;11.376;2023-02-15T08:30:28;-0.70;99.90
9448;DHT22;4762;48.128;11.376;2023-02-15T08:32:30;-0.70;99.90
9448;DHT22;4762;48.128;11.376;2023-02-15T08:34:34;-0.70;99.90
9448;DHT22;4762;48.128;11.376;2023-02-15T08:36:35;-0.50;99.90
9448;DHT22;4762;48.128;11.376;2023-02-15T08:38:38;-0.30;99.90
9448;DHT22;4762;48.128;11.376;2023-02-15T08:40:40;-0.30;99.90
9448;DHT22;4762;48.128;11.376;2023-02-15T08:42:42;-0.60;99.90
9448;DHT22;4762;48.128;11.376;2023-02-15T08:44:44;-0.30;99.90
9448;DHT22;4762;48.128;11.376;2023-02-15T08:46:47;-0.30;99.90
9448;DHT22;4762;48.128;11.376;2023-02-15T08:48:49;0.10;99.90
9448;DHT22;4762;48.128;11.376;2023-02-15T08:50:51;0.10;99.90
9448;DHT22;4762;48.128;11.376;2023-02-15T08:52:53;-0.30;99.90
9448;DHT22;4762;48.128;11.376;2023-02-15T08:54:55;-0.10;99.90
9448;DHT22;4762;48.128;11.376;2023-02-15T08:56:58;0.20;99.90
9448;DHT22;4762;48.128;11.376;2023-02-15T08:59:00;0.40;99.90
9448;DHT22;4762;48.128;11.376;2023-02-15T09:01:08;0.30;99.90
9448;DHT22;4762;48.128;11.376;2023-02-15T09:03:09;0.50;99.90
9448;DHT22;4762;48.128;11.376;2023-02-15T09:05:11;0.60;99.90
9448;DHT22;4762;48.128;11.376;2023-02-15T09:07:14;0.90;99.90
9448;DHT22;4762;48.128;11.376;2023-02-15T09:09:16;0.90;99.90
9448;DHT22;4762;48.128;11.376;2023-02-15T09:11:20;1.10;99.90
9448;DHT22;4762;48.128;11.376;2023-02-15T09:13:24;0.90;99.90
9448;DHT22;4762;48.128;11.376;2023-02-15T09:15:27;0.60;99.90
9448;DHT22;4762;48.128;11.376;2023-02-15T09:17:29;0.90;99.90
9448;DHT22;4762;48.128;11.376;2023-02-15T09:19:31;1.10;99.90
9448;DHT22;4762;48.128;11.376;2023-02-15T09:21:35;1.00;99.90
9448;DHT22;4762;48.128;11.376;2023-02-15T09:23:36;1.10;99.90
9448;DHT22;4762;48.128;11.376;2023-02-15T09:25:38;1.40;99.90
9448;DHT22;4762;48.128;11.376;2023-02-15T09:27:40;1.40;99.90
9448;DHT22;4762;48.128;11.376;2023-02-15T09:29:42;1.30;99.90
9448;DHT22;4762;48.128;11.376;2023-02-15T09:31:46;1.30;99.90
9448;DHT22;4762;48.128;11.376;2023-02-15T09:33:47;1.30;99.90
9448;DHT22;4762;48.128;11.376;2023-02-15T09:35:49;1.80;99.90
9448;DHT22;4762;48.128;11.376;2023-02-15T09:37:51;1.90;99.90
9448;DHT22;4762;48.128;11.376;2023-02-15T09:39:54;2.10;99.90
9448;DHT22;4762;48.128;11.376;2023-02-15T09:42:02;2.00;99.90
9448;DHT22;4762;48.128;11.376;2023-02-15T09:44:08;2.60;99.90
9448;DHT22;4762;48.128;11.376;2023-02-15T09:46:15;2.80;99.90
9448;DHT22;4762;48.128;11.376;2023-02-15T09:48:22;3.00;99.90
9448;DHT22;4762;48.128;11.376;2023-02-15T09:50:29;2.70;99.90
9448;DHT22;4762;48.128;11.376;2023-02-15T09:52:54;2.60;99.90
9448;DHT22;4762;48.128;11.376;2023-02-15T09:57:19;3.10;99.90
9448;DHT22;4762;48.128;11.376;2023-02-15T09:59:27;3.90;99.90
9448;DHT22;4762;48.128;11.376;2023-02-15T10:01:51;4.30;99.90
9448;DHT22;4762;48.128;11.376;2023-02-15T10:06:04;4.50;99.10
9448;DHT22;4762;48.128;11.376;2023-02-15T10:08:06;4.90;99.80
9448;DHT22;4762;48.128;11.376;2023-02-15T10:10:25;4.90;99.30
9448;DHT22;4762;48.128;11.376;2023-02-15T10:12:36;5.70;97.80
9448;DHT22;4762;48.128;11.376;2023-02-15T10:16:51;5.50;98.90
9448;DHT22;4762;48.128;11.376;2023-02-15T10:19:11;5.80;97.70
9448;DHT22;4762;48.128;11.376;2023-02-15T10:23:41;6.10;93.70
9448;DHT22;4762;48.128;11.376;2023-02-15T10:25:47;6.10;93.90
9448;DHT22;4762;48.128;11.376;2023-02-15T10:27:49;6.80;94.20
9448;DHT22;4762;48.128;11.376;2023-02-15T10:30:11;7.00;94.10
9448;DHT22;4762;48.128;11.376;2023-02-15T10:32:27;6.40;94.10
9448;DHT22;4762;48.128;11.376;2023-02-15T10:34:37;6.60;92.80
9448;DHT22;4762;48.128;11.376;2023-02-15T10:36:54;6.90;93.60
9448;DHT22;4762;48.128;11.376;2023-02-15T10:39:12;7.30;91.70
9448;DHT22;4762;48.128;11.376;2023-02-15T10:41:24;7.30;93.00
9448;DHT22;4762;48.128;11.376;2023-02-15T10:43:34;7.30;92.70
9448;DHT22;4762;48.128;11.376;2023-02-15T10:46:15;7.10;92.20
9448;DHT22;4762;48.128;11.376;2023-02-15T10:48:22;7.00;91.80
9448;DHT22;4762;48.128;11.376;2023-02-15T10:50:30;6.80;93.40
9448;DHT22;4762;48.128;11.376;2023-02-15T10:52:40;7.90;91.20
9448;DHT22;4762;48.128;11.376;2023-02-15T10:54:45;7.00;90.10
9448;DHT22;4762;48.128;11.376;2023-02-15T10:56:54;7.90;91.60
9448;DHT22;4762;48.128;11.376;2023-02-15T11:00:03;8.20;87.40
9448;DHT22;4762;48.128;11.376;2023-02-15T11:01:34;8.20;86.80
9448;DHT22;4762;48.128;11.376;2023-02-15T11:03:55;8.20;88.00
9448;DHT22;4762;48.128;11.376;2023-02-15T11:06:00;8.40;88.30
9448;DHT22;4762;48.128;11.376;2023-02-15T11:08:00;8.30;90.50
9448;DHT22;4762;48.128;11.376;2023-02-15T11:10:21;8.70;89.70
9448;DHT22;4762;48.128;11.376;2023-02-15T11:12:17;8.80;87.70
9448;DHT22;4762;48.128;11.376;2023-02-15T11:14:52;8.70;85.00
9448;DHT22;4762;48.128;11.376;2023-02-15T11:16:36;9.10;82.50
9448;DHT22;4762;48.128;11.376;2023-02-15T11:18:40;8.50;86.50
9448;DHT22;4762;48.128;11.376;2023-02-15T11:20:45;8.50;85.80
9448;DHT22;4762;48.128;11.376;2023-02-15T11:22:47;8.80;83.60
9448;DHT22;4762;48.128;11.376;2023-02-15T11:24:47;9.20;82.60
9448;DHT22;4762;48.128;11.376;2023-02-15T11:26:54;9.80;81.40
9448;DHT22;4762;48.128;11.376;2023-02-15T11:28:54;9.80;80.50
9448;DHT22;4762;48.128;11.376;2023-02-15T11:30:55;9.50;82.80
9448;DHT22;4762;48.128;11.376;2023-02-15T11:32:57;10.10;80.50
9448;DHT22;4762;48.128;11.376;2023-02-15T11:35:04;10.00;76.90
9448;DHT22;4762;48.128;11.376;2023-02-15T11:37:09;10.40;78.00
9448;DHT22;4762;48.128;11.376;2023-02-15T11:39:12;9.20;75.20
9448;DHT22;4762;48.128;11.376;2023-02-15T11:41:18;10.00;77.70
9448;DHT22;4762;48.128;11.376;2023-02-15T11:43:23;10.40;77.70
9448;DHT22;4762;48.128;11.376;2023-02-15T11:45:28;10.50;74.90
9448;DHT22;4762;48.128;11.376;2023-02-15T11:47:30;10.10;78.50
9448;DHT22;4762;48.128;11.376;2023-02-15T11:49:32;9.80;79.10
9448;DHT22;4762;48.128;11.376;2023-02-15T11:51:34;10.30;79.20
9448;DHT22;4762;48.128;11.376;2023-02-15T11:53:37;11.00;74.30
9448;DHT22;4762;48.128;11.376;2023-02-15T11:55:39;10.90;71.70
9448;DHT22;4762;48.128;11.376;2023-02-15T11:57:42;10.60;77.40
9448;DHT22;4762;48.128;11.376;2023-02-15T11:59:49;11.10;74.70
9448;DHT22;4762;48.128;11.376;2023-02-15T12:01:49;10.80;73.70
9448;DHT22;4762;48.128;11.376;2023-02-15T12:04:01;11.10;73.90
9448;DHT22;4762;48.128;11.376;2023-02-15T12:06:04;11.40;72.90
9448;DHT22;4762;48.128;11.376;2023-02-15T12:08:15;11.20;72.10
9448;DHT22;4762;48.128;11.376;2023-02-15T12:10:19;10.80;74.40
9448;DHT22;4762;48.128;11.376;2023-02-15T12:12:21;11.20;71.80
9448;DHT22;4762;48.128;11.376;2023-02-15T12:14:24;11.20;72.80
9448;DHT22;4762;48.128;11.376;2023-02-15T12:16:26;11.10;71.00
9448;DHT22;4762;48.128;11.376;2023-02-15T12:18:34;11.40;71.70
9448;DHT22;4762;48.128;11.376;2023-02-15T12:20:35;11.10;70.80
9448;DHT22;4762;48.128;11.376;2023-02-15T12:22:37;10.90;72.10
9448;DHT22;4762;48.128;11.376;2023-02-15T12:24:43;11.40;72.00
9448;DHT22;4762;48.128;11.376;2023-02-15T12:26:42;11.60;71.50
9448;DHT22;4762;48.128;11.376;2023-02-15T12:28:44;11.40;70.40
9448;DHT22;4762;48.128;11.376;2023-02-15T12:30:46;11.00;73.20
9448;DHT22;4762;48.128;11.376;2023-02-15T12:32:55;11.10;70.80
9448;DHT22;4762;48.128;11.376;2023-02-15T12:34:59;11.10;71.50
9448;DHT22;4762;48.128;11.376;2023-02-15T12:37:00;11.50;70.10
9448;DHT22;4762;48.128;11.376;2023-02-15T12:41:25;11.70;68.50
9448;DHT22;4762;48.128;11.376;2023-02-15T12:43:32;12.10;68.20
9448;DHT22;4762;48.128;11.376;2023-02-15T12:45:36;11.90;69.10
9448;DHT22;4762;48.128;11.376;2023-02-15T12:47:37;12.30;67.20
9448;DHT22;4762;48.128;11.376;2023-02-15T12:49:39;12.40;66.40
9448;DHT22;4762;48.128;11.376;2023-02-15T12:51:46;12.00;66.90
9448;DHT22;4762;48.128;11.376;2023-02-15T12:53:47;11.80;67.30
9448;DHT22;4762;48.128;11.376;2023-02-15T12:55:52;11.50;68.00
9448;DHT22;4762;48.128;11.376;2023-02-15T12:58:06;11.50;70.40
9448;DHT22;4762;48.128;11.376;2023-02-15T13:00:28;11.90;67.30
9448;DHT22;4762;48.128;11.376;2023-02-15T13:02:35;12.10;67.90
9448;DHT22;4762;48.128;11.376;2023-02-15T13:04:36;12.10;68.50
9448;DHT22;4762;48.128;11.376;2023-02-15T13:06:38;11.40;69.20
9448;DHT22;4762;48.128;11.376;2023-02-15T13:08:46;11.40;67.70
9448;DHT22;4762;48.128;11.376;2023-02-15T13:10:55;11.30;70.30
9448;DHT22;4762;48.128;11.376;2023-02-15T13:12:56;11.40;70.40
9448;DHT22;4762;48.128;11.376;2023-02-15T13:14:59;11.60;71.50
9448;DHT22;4762;48.128;11.376;2023-02-15T13:17:02;11.70;70.50
9448;DHT22;4762;48.128;11.376;2023-02-15T13:21:14;12.70;64.10
9448;DHT22;4762;48.128;11.376;2023-02-15T13:23:32;12.60;65.70
9448;DHT22;4762;48.128;11.376;2023-02-15T13:25:40;12.30;66.40
9448;DHT22;4762;48.128;11.376;2023-02-15T13:27:41;11.80;69.20
9448;DHT22;4762;48.128;11.376;2023-02-15T13:29:45;11.70;66.50
9448;DHT22;4762;48.128;11.376;2023-02-15T13:31:46;11.60;68.00
9448;DHT22;4762;48.128;11.376;2023-02-15T13:33:52;12.00;69.60
9448;DHT22;4762;48.128;11.376;2023-02-15T13:36:09;11.90;67.30
9448;DHT22;4762;48.128;11.376;2023-02-15T13:38:31;11.60;68.60
9448;DHT22;4762;48.128;11.376;2023-02-15T13:40:33;11.90;67.90
9448;DHT22;4762;48.128;11.376;2023-02-15T13:42:34;12.00;68.90
9448;DHT22;4762;48.128;11.376;2023-02-15T13:44:53;12.30;66.90
9448;DHT22;4762;48.128;11.376;2023-02-15T13:47:02;12.40;66.50
9448;DHT22;4762;48.128;11.376;2023-02-15T13:49:29;12.20;66.10
9448;DHT22;4762;48.128;11.376;2023-02-15T13:51:43;11.90;65.70